Roaring Gap, North Carolina
Current Conditions -  °F | °C
As of 8:35 AM on Saturday 20 Dec 2014 (Local Time) from KUKF Reporting Station
Light Snow Light Snow  
Wind Chill:   Ceiling: 2800
Heat Index:   Visibility: 7mi
Dew Point: -2°   Wind: 3mph
Humidity: 75%   Direction: 70°ENE
Pressure: 30.29"   Gusts: NA
Location:  36.4°N, 80.98°W
Report Text: KUKF 201335Z AUTO 07003KT 7SM -SN OVC028 02/M02 A3029 RMK AO2
Loading
Personal Weather Stations






























Interactive Weather Map New forecast layout! Learn more

10-Day Weather Forecast

Advertisements
Track Severe Weather on mobile